Time;durP1;ratioP1;P1;durP2;ratioP2;P2;SDS_P1;SDS_P2;PMS_P1;PMS_P2;Temp;Humidity;BMP_temperature;BMP_pressure;BME280_temperature;BME280_humidity;BME280_pressure;Samples;Min_cycle;Max_cycle;Signal;HPM_P1;HPM_P2
2023/03/19 00:01:22;;;;;;;17.43;11.27;;;10.50;99.90;;;;;;5012424;28;20938;-74
2023/03/19 00:03:48;;;;;;;18.97;12.10;;;10.50;99.90;;;;;;5014476;28;20978;-74
2023/03/19 00:06:15;;;;;;;19.57;11.57;;;10.50;99.90;;;;;;5014882;28;20479;-74
2023/03/19 00:08:43;;;;;;;18.70;10.23;;;10.50;99.90;;;;;;5014825;28;20488;-74
2023/03/19 00:11:12;;;;;;;17.60;11.03;;;10.50;99.90;;;;;;5014418;28;20462;-74
2023/03/19 00:13:38;;;;;;;17.30;11.63;;;10.50;99.90;;;;;;5014419;28;20653;-74
2023/03/19 00:16:06;;;;;;;15.10;10.50;;;10.50;99.90;;;;;;5014981;28;20512;-74
2023/03/19 00:18:33;;;;;;;19.93;11.20;;;10.50;99.90;;;;;;5014679;28;20458;-74
2023/03/19 00:21:00;;;;;;;15.83;11.37;;;10.50;99.90;;;;;;5022398;28;20501;-74
2023/03/19 00:23:27;;;;;;;16.47;11.10;;;10.40;99.90;;;;;;5014373;28;20458;-74
2023/03/19 00:25:55;;;;;;;19.37;11.17;;;10.40;99.90;;;;;;5014168;28;20483;-74
2023/03/19 00:28:21;;;;;;;22.03;11.40;;;10.40;99.90;;;;;;5014159;28;20466;-74
2023/03/19 00:30:48;;;;;;;22.50;11.10;;;10.40;99.90;;;;;;5013896;28;20943;-74
2023/03/19 00:33:15;;;;;;;15.80;10.50;;;10.30;99.90;;;;;;5014569;28;20852;-74
2023/03/19 00:35:41;;;;;;;14.70;10.30;;;10.30;99.90;;;;;;5013435;28;20507;-74
2023/03/19 00:38:08;;;;;;;17.90;11.30;;;10.20;99.90;;;;;;5014407;28;20460;-73
2023/03/19 00:40:36;;;;;;;14.47;10.37;;;10.20;99.90;;;;;;5013616;28;20457;-73
2023/03/19 00:43:04;;;;;;;21.47;12.03;;;10.20;99.90;;;;;;5013885;28;20953;-73
2023/03/19 00:45:30;;;;;;;22.33;10.97;;;10.10;99.90;;;;;;5013829;28;20491;-73
2023/03/19 00:47:57;;;;;;;16.90;11.10;;;10.20;99.90;;;;;;5014257;28;20538;-74
2023/03/19 00:50:25;;;;;;;19.83;11.60;;;10.20;99.90;;;;;;5013877;28;20459;-73
2023/03/19 00:52:52;;;;;;;17.30;10.10;;;10.20;99.90;;;;;;5017116;28;20463;-74
2023/03/19 00:55:18;;;;;;;17.10;10.97;;;10.20;99.90;;;;;;5014036;28;20471;-73
2023/03/19 00:57:45;;;;;;;23.40;11.50;;;10.20;99.90;;;;;;5013835;28;21018;-73
2023/03/19 01:00:14;;;;;;;22.17;10.87;;;10.20;99.90;;;;;;5013980;28;20447;-73
2023/03/19 01:02:40;;;;;;;19.07;11.47;;;10.20;99.90;;;;;;5010363;28;20457;-73
2023/03/19 01:05:08;;;;;;;16.13;10.80;;;10.20;99.90;;;;;;5013696;28;20474;-73
2023/03/19 01:07:35;;;;;;;15.63;11.10;;;10.20;99.90;;;;;;5013443;28;20541;-73
2023/03/19 01:10:01;;;;;;;16.03;10.90;;;10.20;99.90;;;;;;5013895;28;20457;-73
2023/03/19 01:12:28;;;;;;;18.87;11.13;;;10.20;99.90;;;;;;5013504;28;20506;-73
2023/03/19 01:14:55;;;;;;;18.23;12.00;;;10.20;99.90;;;;;;5013733;28;20878;-73
2023/03/19 01:17:23;;;;;;;22.60;12.60;;;10.20;99.90;;;;;;5013273;28;20549;-73
2023/03/19 01:19:50;;;;;;;16.20;11.70;;;10.20;99.90;;;;;;5013390;28;20509;-74
2023/03/19 01:22:16;;;;;;;19.77;11.57;;;10.20;99.90;;;;;;5013141;28;20467;-73
2023/03/19 01:24:43;;;;;;;21.53;12.10;;;10.20;99.90;;;;;;5013166;28;20886;-73
2023/03/19 01:27:10;;;;;;;22.40;12.40;;;10.20;99.90;;;;;;5013371;28;20490;-73
2023/03/19 01:29:37;;;;;;;18.80;12.00;;;10.20;99.90;;;;;;5013078;28;21096;-73
2023/03/19 01:32:04;;;;;;;20.10;11.70;;;10.20;99.90;;;;;;5012840;28;20828;-73
2023/03/19 01:34:32;;;;;;;21.43;13.00;;;10.20;99.90;;;;;;5012963;28;20482;-73
2023/03/19 01:36:59;;;;;;;18.23;13.37;;;10.20;99.90;;;;;;5013078;28;20889;-73
2023/03/19 01:39:26;;;;;;;21.13;12.23;;;10.20;99.90;;;;;;5012851;28;20474;-73
2023/03/19 01:41:53;;;;;;;27.80;13.27;;;10.10;99.90;;;;;;5012750;28;20458;-73
2023/03/19 01:44:28;;;;;;;24.20;13.50;;;10.10;99.90;;;;;;5013081;28;20487;-73
2023/03/19 01:46:56;;;;;;;24.33;13.00;;;10.10;99.90;;;;;;5012021;28;20523;-73
2023/03/19 01:49:24;;;;;;;25.30;13.53;;;10.00;99.90;;;;;;5012977;28;20458;-73
2023/03/19 01:51:53;;;;;;;17.60;11.70;;;10.00;99.90;;;;;;5013169;28;20524;-73
2023/03/19 01:54:22;;;;;;;19.40;11.33;;;10.00;99.90;;;;;;5016986;28;20475;-73
2023/03/19 01:56:52;;;;;;;18.30;12.27;;;10.00;99.90;;;;;;5012591;28;20869;-73
2023/03/19 01:59:24;;;;;;;20.10;11.23;;;9.90;99.90;;;;;;5012433;28;20486;-73
2023/03/19 02:01:56;;;;;;;16.50;11.30;;;9.80;99.90;;;;;;5009146;28;20859;-73
2023/03/19 02:04:25;;;;;;;14.63;10.23;;;9.80;99.90;;;;;;5012809;28;20520;-73
2023/03/19 02:06:55;;;;;;;14.40;10.53;;;9.70;99.90;;;;;;5012203;28;20489;-73
2023/03/19 02:09:22;;;;;;;16.27;9.60;;;9.70;99.90;;;;;;5012633;28;20456;-73
2023/03/19 02:11:49;;;;;;;16.40;11.13;;;9.70;99.90;;;;;;5011926;28;20456;-73
2023/03/19 02:14:16;;;;;;;21.20;11.17;;;9.60;99.90;;;;;;5012374;28;20475;-73
2023/03/19 02:16:43;;;;;;;14.90;9.87;;;9.60;99.90;;;;;;5011966;28;20820;-73
2023/03/19 02:19:15;;;;;;;19.97;11.00;;;9.60;99.90;;;;;;5012533;28;20528;-72
2023/03/19 02:21:41;;;;;;;14.83;10.57;;;9.70;99.90;;;;;;5012692;28;20456;-73
2023/03/19 02:24:15;;;;;;;16.40;10.43;;;9.60;99.90;;;;;;5012138;28;20526;-73
2023/03/19 02:26:45;;;;;;;19.67;10.90;;;9.60;99.90;;;;;;5011993;28;20495;-72
2023/03/19 02:29:13;;;;;;;14.07;11.33;;;9.60;99.90;;;;;;5012044;28;20927;-73
2023/03/19 02:31:39;;;;;;;20.10;11.23;;;9.60;99.90;;;;;;5012002;28;20735;-73
2023/03/19 02:34:27;;;;;;;21.60;13.20;;;9.60;99.90;;;;;;5012537;28;20481;-73
2023/03/19 02:37:01;;;;;;;21.33;12.10;;;9.60;99.90;;;;;;5011681;28;20827;-73
2023/03/19 02:39:32;;;;;;;19.13;12.90;;;9.60;99.90;;;;;;5012329;28;20466;-73
2023/03/19 02:42:01;;;;;;;17.43;11.90;;;9.60;99.90;;;;;;5003925;28;20478;-73
2023/03/19 02:44:28;;;;;;;24.87;11.80;;;9.60;99.90;;;;;;5012117;28;20526;-73
2023/03/19 02:46:55;;;;;;;22.10;12.27;;;9.60;99.90;;;;;;5011649;28;20489;-72
2023/03/19 02:49:22;;;;;;;21.60;12.00;;;9.50;99.90;;;;;;5011733;28;20465;-73
2023/03/19 02:51:50;;;;;;;18.77;11.80;;;9.60;99.90;;;;;;5011932;28;20460;-73
2023/03/19 02:54:16;;;;;;;19.40;12.10;;;9.50;99.90;;;;;;5016866;28;20514;-74
2023/03/19 02:56:43;;;;;;;21.27;11.73;;;9.50;99.90;;;;;;5011601;28;20889;-73
2023/03/19 02:59:12;;;;;;;21.57;11.37;;;9.50;99.90;;;;;;5011397;28;20464;-73
2023/03/19 03:01:38;;;;;;;16.63;11.63;;;9.50;99.90;;;;;;5008121;28;20553;-73
2023/03/19 03:04:05;;;;;;;23.90;11.20;;;9.50;99.90;;;;;;5011205;28;20527;-73
2023/03/19 03:06:32;;;;;;;19.00;12.47;;;9.50;99.90;;;;;;5012260;28;20539;-73
2023/03/19 03:08:58;;;;;;;19.70;11.57;;;9.50;99.90;;;;;;5011584;28;20468;-73
2023/03/19 03:11:25;;;;;;;27.73;14.67;;;9.50;99.90;;;;;;5011471;28;20947;-73
2023/03/19 03:13:52;;;;;;;31.70;15.43;;;9.50;99.90;;;;;;5011543;28;20473;-73
2023/03/19 03:16:21;;;;;;;26.00;13.17;;;9.50;99.90;;;;;;5011706;28;20455;-73
2023/03/19 03:18:48;;;;;;;25.77;14.07;;;9.50;99.90;;;;;;5011308;28;20459;-73
2023/03/19 03:21:18;;;;;;;24.37;13.13;;;9.50;99.90;;;;;;5012484;28;20443;-73
2023/03/19 03:23:45;;;;;;;27.93;13.70;;;9.50;99.90;;;;;;5011318;28;20517;-73
2023/03/19 03:26:12;;;;;;;24.60;13.17;;;9.50;99.90;;;;;;5011394;28;20591;-73
2023/03/19 03:28:39;;;;;;;24.07;14.03;;;9.50;99.90;;;;;;5011252;28;20463;-72
2023/03/19 03:31:06;;;;;;;20.67;13.27;;;9.50;99.90;;;;;;5011030;28;20509;-73
2023/03/19 03:33:35;;;;;;;24.10;12.40;;;9.50;99.90;;;;;;5011261;28;20469;-72
2023/03/19 03:36:01;;;;;;;18.23;12.90;;;9.50;99.90;;;;;;5003762;28;20459;-73
2023/03/19 03:38:28;;;;;;;20.27;13.17;;;9.50;99.90;;;;;;5011446;28;20456;-72
2023/03/19 03:40:55;;;;;;;16.40;12.90;;;9.60;99.90;;;;;;5010766;28;21013;-72
2023/03/19 03:43:21;;;;;;;18.70;12.63;;;9.60;99.90;;;;;;5011630;28;20457;-72
2023/03/19 03:45:48;;;;;;;17.90;13.20;;;9.60;99.90;;;;;;5011252;28;20476;-73
2023/03/19 03:48:15;;;;;;;17.60;13.17;;;9.50;99.90;;;;;;5011106;28;20541;-72
2023/03/19 03:50:43;;;;;;;25.23;12.83;;;9.50;99.90;;;;;;5011144;28;20524;-72
2023/03/19 03:53:11;;;;;;;26.17;13.90;;;9.50;99.90;;;;;;5017052;28;20967;-72
2023/03/19 03:55:38;;;;;;;20.87;14.03;;;9.50;99.90;;;;;;5011286;28;20475;-72
2023/03/19 03:58:04;;;;;;;21.23;12.47;;;9.40;99.90;;;;;;5011292;28;20451;-72
2023/03/19 04:00:31;;;;;;;22.77;13.90;;;9.40;99.90;;;;;;5011000;28;20459;-73
2023/03/19 04:02:58;;;;;;;23.77;13.37;;;9.30;99.90;;;;;;5007094;28;20518;-72
2023/03/19 04:05:25;;;;;;;22.77;13.20;;;9.30;99.90;;;;;;5010506;28;20555;-72
2023/03/19 04:07:53;;;;;;;23.10;12.60;;;9.20;99.90;;;;;;5010920;28;21070;-72
2023/03/19 04:10:19;;;;;;;21.10;13.90;;;9.20;99.90;;;;;;5012902;28;20460;-73
2023/03/19 04:12:46;;;;;;;23.33;12.80;;;9.20;99.90;;;;;;5014761;28;20515;-72
2023/03/19 04:15:13;;;;;;;19.30;12.60;;;9.10;99.90;;;;;;5014693;28;20838;-72
2023/03/19 04:17:40;;;;;;;24.67;13.20;;;9.10;99.90;;;;;;5014402;28;20500;-72
2023/03/19 04:20:08;;;;;;;20.23;13.60;;;9.10;99.90;;;;;;5015642;28;20946;-72
2023/03/19 04:22:35;;;;;;;23.00;14.73;;;9.10;99.90;;;;;;5014781;28;20883;-72
2023/03/19 04:25:03;;;;;;;21.87;13.70;;;9.10;99.90;;;;;;5014564;28;20470;-72
2023/03/19 04:27:30;;;;;;;20.73;14.07;;;9.10;99.90;;;;;;5014167;28;21026;-72
2023/03/19 04:29:57;;;;;;;23.40;14.60;;;9.10;99.90;;;;;;5014221;28;21727;-72
2023/03/19 04:32:23;;;;;;;20.00;14.17;;;9.10;99.90;;;;;;5014435;28;20484;-72
2023/03/19 04:34:50;;;;;;;22.43;13.93;;;9.10;99.90;;;;;;5013962;28;20480;-73
2023/03/19 04:37:17;;;;;;;22.90;13.30;;;9.10;99.90;;;;;;5014596;28;20504;-72
2023/03/19 04:39:44;;;;;;;18.90;14.97;;;9.10;99.90;;;;;;5014163;28;20486;-72
2023/03/19 04:42:12;;;;;;;19.33;14.70;;;9.10;99.90;;;;;;5014108;28;20463;-72
2023/03/19 04:44:39;;;;;;;18.43;14.10;;;9.10;99.90;;;;;;5013902;28;20525;-73
2023/03/19 04:47:06;;;;;;;25.20;14.10;;;9.10;99.90;;;;;;5013946;28;20487;-73
2023/03/19 04:49:33;;;;;;;20.80;13.70;;;9.00;99.90;;;;;;5014251;28;20443;-72
2023/03/19 04:52:00;;;;;;;18.60;15.40;;;9.00;99.90;;;;;;5015619;28;20458;-72
2023/03/19 04:54:27;;;;;;;26.40;14.20;;;9.00;99.90;;;;;;5018373;28;20480;-73
2023/03/19 04:56:53;;;;;;;26.07;14.13;;;8.90;99.90;;;;;;5012577;28;20479;-72
2023/03/19 04:59:22;;;;;;;23.10;15.77;;;8.90;99.90;;;;;;5013744;28;20452;-72
2023/03/19 05:01:48;;;;;;;23.43;15.00;;;8.80;99.90;;;;;;5009449;28;20460;-72
2023/03/19 05:04:15;;;;;;;19.13;13.87;;;8.80;99.90;;;;;;5013428;28;20574;-72
2023/03/19 05:06:41;;;;;;;19.27;13.63;;;8.70;99.90;;;;;;5013731;28;20504;-72
2023/03/19 05:09:08;;;;;;;19.83;14.33;;;8.60;99.90;;;;;;5013658;28;20868;-73
2023/03/19 05:11:35;;;;;;;16.53;13.60;;;8.60;99.90;;;;;;5013481;28;20458;-72
2023/03/19 05:14:02;;;;;;;20.43;13.30;;;8.50;99.90;;;;;;5013582;28;20494;-72
2023/03/19 05:16:30;;;;;;;19.87;14.20;;;8.50;99.90;;;;;;5013817;28;20545;-72
2023/03/19 05:18:57;;;;;;;24.57;14.27;;;8.40;99.90;;;;;;5013433;28;20469;-72
2023/03/19 05:21:25;;;;;;;21.73;13.77;;;8.40;99.90;;;;;;5013986;28;20510;-72
2023/03/19 05:23:53;;;;;;;23.60;14.93;;;8.40;99.90;;;;;;5013359;28;20482;-72
2023/03/19 05:26:20;;;;;;;19.63;14.60;;;8.40;99.90;;;;;;5013186;28;20459;-72
2023/03/19 05:28:47;;;;;;;24.50;15.97;;;8.30;99.90;;;;;;5013052;28;20917;-72
2023/03/19 05:31:14;;;;;;;20.43;15.10;;;8.30;99.90;;;;;;5012944;28;20485;-72
2023/03/19 05:33:42;;;;;;;22.10;14.40;;;8.30;99.90;;;;;;5013015;28;20455;-75
2023/03/19 05:36:08;;;;;;;28.03;15.70;;;8.30;99.90;;;;;;5013148;28;20455;-74
2023/03/19 05:38:35;;;;;;;20.63;14.70;;;8.30;99.90;;;;;;5013108;28;20455;-73
2023/03/19 05:41:04;;;;;;;21.33;15.70;;;8.30;99.90;;;;;;5012474;28;21190;-74
2023/03/19 05:43:32;;;;;;;23.67;14.47;;;8.30;99.90;;;;;;5012891;28;20458;-75
2023/03/19 05:45:59;;;;;;;21.57;14.83;;;8.30;99.90;;;;;;5012483;28;20963;-74
2023/03/19 05:48:26;;;;;;;22.43;15.27;;;8.30;99.90;;;;;;5012944;28;20487;-74
2023/03/19 05:50:54;;;;;;;23.33;15.07;;;8.30;99.90;;;;;;5012379;28;20447;-74
2023/03/19 05:53:21;;;;;;;24.37;15.93;;;8.30;99.90;;;;;;5019655;28;20462;-74
2023/03/19 05:55:48;;;;;;;23.07;14.20;;;8.30;99.90;;;;;;5012696;28;20478;-74
2023/03/19 05:58:15;;;;;;;21.00;14.70;;;8.30;99.90;;;;;;5012766;28;20504;-74
2023/03/19 06:00:42;;;;;;;25.30;15.60;;;8.30;99.90;;;;;;5011932;28;20477;-75
2023/03/19 06:03:09;;;;;;;35.70;16.50;;;8.30;99.90;;;;;;5007765;28;20453;-77
2023/03/19 06:05:36;;;;;;;22.33;16.10;;;8.20;99.90;;;;;;5012179;28;20507;-76
2023/03/19 06:08:05;;;;;;;24.67;15.97;;;8.20;99.90;;;;;;5011935;28;20921;-76
2023/03/19 06:10:33;;;;;;;24.60;16.03;;;8.20;99.90;;;;;;5012227;28;20510;-77
2023/03/19 06:13:00;;;;;;;27.17;16.50;;;8.20;99.90;;;;;;5012062;28;20451;-77
2023/03/19 06:15:27;;;;;;;20.40;15.10;;;8.20;99.90;;;;;;5012339;28;20840;-76
2023/03/19 06:17:53;;;;;;;25.43;16.80;;;8.20;99.90;;;;;;5012027;28;20450;-76
2023/03/19 06:20:20;;;;;;;29.63;16.80;;;8.30;99.90;;;;;;5014605;28;20516;-78
2023/03/19 06:22:47;;;;;;;22.93;16.40;;;8.30;99.90;;;;;;5011984;28;20471;-77
2023/03/19 06:25:15;;;;;;;24.07;17.20;;;8.30;99.90;;;;;;5012098;28;20477;-77
2023/03/19 06:27:42;;;;;;;28.00;16.53;;;8.40;99.90;;;;;;5011990;28;20497;-77
2023/03/19 06:30:10;;;;;;;24.33;15.70;;;8.40;99.90;;;;;;5011698;28;20459;-77
2023/03/19 06:32:37;;;;;;;30.10;15.73;;;8.50;99.90;;;;;;5008870;28;21004;-76
2023/03/19 06:35:04;;;;;;;25.43;16.17;;;8.50;99.90;;;;;;5011716;28;20847;-76
2023/03/19 06:37:31;;;;;;;22.83;16.53;;;8.50;99.90;;;;;;5012136;28;20506;-76
2023/03/19 06:39:57;;;;;;;22.47;15.80;;;8.50;99.90;;;;;;5011696;28;20867;-77
2023/03/19 06:42:25;;;;;;;26.17;15.67;;;8.50;99.90;;;;;;5011774;28;20455;-77
2023/03/19 06:44:52;;;;;;;21.87;15.70;;;8.50;99.90;;;;;;5009798;28;20477;-77
2023/03/19 06:47:19;;;;;;;20.60;15.53;;;8.60;99.90;;;;;;5009967;28;21012;-77
2023/03/19 06:49:45;;;;;;;27.13;16.20;;;8.60;99.90;;;;;;5009764;28;20462;-77
2023/03/19 06:52:12;;;;;;;23.47;16.00;;;8.70;99.90;;;;;;5014273;28;20938;-77
2023/03/19 06:54:39;;;;;;;22.03;15.87;;;8.70;99.90;;;;;;5014968;28;20880;-77
2023/03/19 06:57:06;;;;;;;23.87;16.03;;;8.80;99.90;;;;;;5010628;28;20501;-77
2023/03/19 06:59:33;;;;;;;24.43;15.10;;;8.80;99.90;;;;;;5011262;28;20548;-78
2023/03/19 07:02:00;;;;;;;23.90;15.60;;;8.90;99.90;;;;;;5006290;28;20460;-77
2023/03/19 07:04:27;;;;;;;21.87;16.47;;;8.90;99.90;;;;;;5011205;28;20485;-77
2023/03/19 07:06:54;;;;;;;23.13;15.23;;;9.00;99.90;;;;;;5011550;28;20455;-77
2023/03/19 07:09:21;;;;;;;22.90;15.30;;;9.00;99.90;;;;;;5011481;28;20493;-77
2023/03/19 07:11:48;;;;;;;22.43;15.73;;;9.10;99.90;;;;;;5011192;28;20518;-77
2023/03/19 07:14:14;;;;;;;18.87;14.40;;;9.10;99.90;;;;;;5011294;28;20534;-77
2023/03/19 07:16:42;;;;;;;26.63;14.97;;;9.10;99.90;;;;;;5011582;28;20450;-76
2023/03/19 07:19:09;;;;;;;26.70;14.50;;;9.10;99.90;;;;;;5011170;28;20535;-77
2023/03/19 07:21:36;;;;;;;19.30;13.83;;;9.10;99.90;;;;;;5013831;28;20486;-78
2023/03/19 07:24:02;;;;;;;22.40;15.13;;;9.20;99.90;;;;;;5011091;28;20812;-77
2023/03/19 07:26:29;;;;;;;15.03;13.40;;;9.20;99.90;;;;;;5011039;28;20972;-76
2023/03/19 07:28:56;;;;;;;23.50;14.70;;;9.20;99.90;;;;;;5010719;28;20713;-77
2023/03/19 07:31:22;;;;;;;21.93;14.67;;;9.30;99.90;;;;;;5010758;28;20459;-77
2023/03/19 07:33:50;;;;;;;26.43;14.63;;;9.30;99.90;;;;;;5010865;28;20546;-77
2023/03/19 07:36:17;;;;;;;22.90;14.10;;;9.30;99.90;;;;;;5011145;28;20458;-77
2023/03/19 07:38:43;;;;;;;19.53;14.40;;;9.40;99.90;;;;;;5010402;28;20454;-72
2023/03/19 07:41:10;;;;;;;18.37;14.23;;;9.30;99.90;;;;;;5010389;28;20447;-77
2023/03/19 07:43:37;;;;;;;20.27;13.80;;;9.40;99.90;;;;;;5010877;28;20490;-77
2023/03/19 07:46:04;;;;;;;21.53;14.67;;;9.50;99.90;;;;;;5013645;28;20457;-77
2023/03/19 07:48:30;;;;;;;25.50;14.03;;;9.60;99.90;;;;;;5015187;28;20503;-76
2023/03/19 07:50:58;;;;;;;21.67;13.90;;;9.60;99.90;;;;;;5014348;28;20466;-77
2023/03/19 07:53:26;;;;;;;21.20;13.10;;;9.60;99.90;;;;;;5022280;28;20506;-76
2023/03/19 07:55:52;;;;;;;20.80;13.30;;;9.60;99.90;;;;;;5014246;28;20462;-76
2023/03/19 07:58:19;;;;;;;20.83;13.20;;;9.60;99.90;;;;;;5014782;28;20455;-76
2023/03/19 08:00:46;;;;;;;18.10;13.47;;;9.70;99.90;;;;;;5013626;28;20561;-78
2023/03/19 08:03:13;;;;;;;24.67;13.70;;;9.70;99.90;;;;;;5009800;28;20450;-76
2023/03/19 08:05:40;;;;;;;26.57;14.80;;;9.80;99.90;;;;;;5013812;28;20597;-76
2023/03/19 08:08:08;;;;;;;23.87;14.43;;;9.80;99.90;;;;;;5013462;28;20896;-76
2023/03/19 08:10:34;;;;;;;14.43;12.73;;;9.90;99.90;;;;;;5014847;28;20512;-76
2023/03/19 08:13:01;;;;;;;22.50;13.10;;;9.90;99.90;;;;;;5014467;28;20455;-76
2023/03/19 08:15:27;;;;;;;22.53;13.50;;;9.90;99.90;;;;;;5014540;28;20581;-77
2023/03/19 08:17:58;;;;;;;19.60;12.70;;;9.90;99.90;;;;;;5011927;28;21018;-77
2023/03/19 08:20:24;;;;;;;16.43;12.37;;;9.90;99.90;;;;;;5012836;28;20462;-76
2023/03/19 08:22:51;;;;;;;18.10;12.57;;;10.00;99.90;;;;;;5013873;28;20955;-77
2023/03/19 08:25:19;;;;;;;19.93;13.07;;;10.10;99.90;;;;;;5014560;28;20520;-77
2023/03/19 08:27:46;;;;;;;19.50;12.93;;;10.30;99.90;;;;;;5014101;28;20523;-77
2023/03/19 08:30:14;;;;;;;17.10;11.47;;;10.60;99.90;;;;;;5013956;28;20458;-77
2023/03/19 08:32:43;;;;;;;18.27;11.63;;;10.80;99.90;;;;;;5013903;28;20455;-77
2023/03/19 08:35:11;;;;;;;16.30;11.47;;;10.90;99.90;;;;;;5011168;28;20569;-77
2023/03/19 08:37:38;;;;;;;19.10;11.13;;;11.10;99.90;;;;;;5013148;28;20454;-76
2023/03/19 08:40:06;;;;;;;20.70;12.33;;;11.20;99.90;;;;;;5008366;28;20458;-76
2023/03/19 08:42:34;;;;;;;17.63;11.20;;;11.30;99.90;;;;;;5013917;28;20953;-76
2023/03/19 08:45:00;;;;;;;15.10;10.93;;;11.30;99.90;;;;;;5013420;28;20826;-76
2023/03/19 08:47:27;;;;;;;13.63;10.10;;;11.40;99.90;;;;;;5013319;28;20876;-76
2023/03/19 08:49:54;;;;;;;17.00;10.90;;;11.40;99.90;;;;;;5013546;28;20566;-76
2023/03/19 08:52:21;;;;;;;19.60;10.93;;;11.50;99.90;;;;;;5013947;28;20540;-75
2023/03/19 08:54:47;;;;;;;18.70;10.30;;;11.50;99.90;;;;;;5012840;28;20901;-75
2023/03/19 08:57:14;;;;;;;18.13;10.50;;;11.60;99.90;;;;;;5012355;28;20488;-75
2023/03/19 08:59:42;;;;;;;16.03;9.73;;;11.60;99.90;;;;;;5013719;28;20454;-74
2023/03/19 09:02:10;;;;;;;12.20;10.20;;;11.70;99.90;;;;;;5012822;28;20455;-76
2023/03/19 09:04:38;;;;;;;12.17;9.17;;;11.80;99.90;;;;;;5013187;28;20936;-74
2023/03/19 09:07:05;;;;;;;12.10;9.63;;;11.90;99.90;;;;;;5013209;28;20490;-75
2023/03/19 09:09:32;;;;;;;16.63;10.10;;;12.00;99.90;;;;;;5013020;28;21069;-76
2023/03/19 09:11:58;;;;;;;14.27;10.63;;;12.00;99.90;;;;;;5010506;28;21038;-76
2023/03/19 09:14:25;;;;;;;21.33;11.33;;;11.90;99.90;;;;;;5013236;28;20470;-75
2023/03/19 09:16:55;;;;;;;15.07;11.40;;;11.80;99.90;;;;;;5013024;28;20517;-72
2023/03/19 09:19:22;;;;;;;18.63;11.83;;;11.70;99.90;;;;;;5012674;28;20535;-76
2023/03/19 09:21:49;;;;;;;19.17;12.90;;;11.70;99.90;;;;;;5010901;28;20447;-76
2023/03/19 09:24:16;;;;;;;19.93;11.70;;;11.70;99.90;;;;;;5010705;28;20528;-76
2023/03/19 09:26:42;;;;;;;22.87;12.30;;;11.70;99.90;;;;;;5012100;28;20460;-76
2023/03/19 09:29:09;;;;;;;16.20;11.97;;;11.60;99.90;;;;;;5011097;28;21145;-76
2023/03/19 09:31:37;;;;;;;17.50;12.30;;;11.60;99.90;;;;;;5012477;28;20457;-76
2023/03/19 09:34:05;;;;;;;16.50;11.63;;;11.60;99.90;;;;;;5012453;28;20478;-76
2023/03/19 09:36:32;;;;;;;17.37;11.50;;;11.70;99.90;;;;;;5013021;28;20546;-75
2023/03/19 09:38:59;;;;;;;17.80;12.00;;;11.70;99.90;;;;;;5012499;28;20451;-76
2023/03/19 09:41:32;;;;;;;25.10;11.97;;;11.70;99.90;;;;;;5012769;28;20516;-76
2023/03/19 09:44:01;;;;;;;15.93;10.57;;;11.60;99.90;;;;;;5012682;28;20481;-76
2023/03/19 09:46:36;;;;;;;15.47;10.50;;;11.60;99.90;;;;;;5012543;28;20461;-76
2023/03/19 09:49:12;;;;;;;20.63;10.13;;;11.60;99.90;;;;;;5012188;28;20486;-77
2023/03/19 09:51:44;;;;;;;13.67;9.77;;;11.70;99.90;;;;;;5009868;28;20524;-76
2023/03/19 09:54:27;;;;;;;11.17;8.60;;;11.90;99.90;;;;;;5012564;28;20483;-68
2023/03/19 09:56:55;;;;;;;14.50;9.40;;;12.10;99.90;;;;;;5009810;28;20464;-76
2023/03/19 09:59:23;;;;;;;19.47;10.03;;;12.40;99.90;;;;;;5011436;28;20462;-75
2023/03/19 10:01:57;;;;;;;16.20;10.93;;;12.60;99.90;;;;;;5005810;28;20506;-77
2023/03/19 10:04:41;;;;;;;13.93;9.80;;;12.90;99.90;;;;;;5011036;28;20475;-77
2023/03/19 10:07:18;;;;;;;16.83;10.37;;;13.20;99.90;;;;;;5011310;28;20451;-70
2023/03/19 10:09:58;;;;;;;13.63;9.97;;;13.20;99.90;;;;;;5011150;28;20482;-70
2023/03/19 10:12:40;;;;;;;15.63;9.23;;;13.30;99.90;;;;;;5004730;28;20450;-75
2023/03/19 10:15:17;;;;;;;15.67;9.63;;;13.50;99.90;;;;;;5011574;28;20478;-75
2023/03/19 10:17:53;;;;;;;11.97;8.40;;;13.70;99.90;;;;;;5011554;28;20459;-76
2023/03/19 10:20:29;;;;;;;11.73;8.93;;;13.90;99.90;;;;;;5003281;28;20455;-77
2023/03/19 10:23:00;;;;;;;14.60;8.97;;;14.20;99.90;;;;;;5011713;28;20513;-77
2023/03/19 10:25:30;;;;;;;16.00;9.60;;;14.50;99.90;;;;;;5012236;28;20490;-76
2023/03/19 10:28:02;;;;;;;12.73;9.50;;;14.60;99.90;;;;;;5012032;28;20463;-77
2023/03/19 10:30:31;;;;;;;13.97;9.10;;;14.80;99.90;;;;;;5011387;28;20891;-77
2023/03/19 10:33:11;;;;;;;11.80;8.73;;;15.00;99.90;;;;;;5011899;28;20461;-77
2023/03/19 10:35:43;;;;;;;13.30;8.63;;;15.00;99.90;;;;;;5011636;28;20500;-77
2023/03/19 10:38:20;;;;;;;17.13;9.13;;;14.80;99.90;;;;;;5011484;28;20956;-78
2023/03/19 10:40:59;;;;;;;11.83;7.77;;;14.70;99.90;;;;;;5008617;28;20991;-78
2023/03/19 10:43:27;;;;;;;15.10;9.57;;;14.50;99.90;;;;;;5004881;28;20459;-78
2023/03/19 10:45:54;;;;;;;9.40;7.57;;;14.30;99.90;;;;;;5011000;28;20872;-77
2023/03/19 10:48:25;;;;;;;11.23;6.23;;;14.20;99.90;;;;;;5011657;28;20455;-78
2023/03/19 10:50:57;;;;;;;10.57;7.20;;;14.10;99.90;;;;;;5011460;28;20996;-77
2023/03/19 10:53:31;;;;;;;12.33;7.07;;;14.00;99.90;;;;;;5005658;28;20528;-78
2023/03/19 10:56:02;;;;;;;10.80;6.27;;;14.00;99.90;;;;;;5011461;28;20512;-77
2023/03/19 10:58:30;;;;;;;8.53;7.20;;;14.00;99.90;;;;;;5011723;28;20911;-77
2023/03/19 11:01:02;;;;;;;6.77;6.00;;;14.10;99.90;;;;;;5005334;28;20456;-78
2023/03/19 11:03:32;;;;;;;11.43;5.90;;;14.10;99.90;;;;;;5011182;28;20483;-77
2023/03/19 11:06:17;;;;;;;7.60;5.30;;;14.30;99.90;;;;;;5011667;28;20446;-78
2023/03/19 11:08:52;;;;;;;11.50;6.53;;;14.60;99.90;;;;;;5011886;28;20540;-78
2023/03/19 11:11:31;;;;;;;8.97;5.00;;;15.10;99.90;;;;;;5008184;28;20469;-78
2023/03/19 11:13:58;;;;;;;5.40;4.70;;;15.60;99.90;;;;;;5011567;28;20498;-78
2023/03/19 11:16:25;;;;;;;7.60;4.57;;;16.20;99.90;;;;;;5011821;28;20452;-78
2023/03/19 11:18:51;;;;;;;5.33;3.07;;;16.20;99.90;;;;;;5011781;28;20451;-78
2023/03/19 11:21:27;;;;;;;4.43;2.97;;;15.90;99.90;;;;;;5007427;28;20509;-79
2023/03/19 11:24:01;;;;;;;3.80;2.73;;;15.60;99.90;;;;;;5011698;28;20529;-78
2023/03/19 11:26:28;;;;;;;4.30;2.93;;;15.30;99.90;;;;;;5004586;28;20483;-77
2023/03/19 11:29:01;;;;;;;2.80;2.50;;;15.20;99.90;;;;;;5011474;28;20879;-77
2023/03/19 11:31:34;;;;;;;5.37;2.93;;;14.80;99.90;;;;;;5004603;28;20447;-77
2023/03/19 11:34:15;;;;;;;14.00;2.90;;;14.60;99.90;;;;;;5011717;28;20445;-76
2023/03/19 11:36:52;;;;;;;5.20;2.20;;;14.20;99.90;;;;;;5011176;28;20451;-76
2023/03/19 11:39:27;;;;;;;4.67;1.90;;;13.40;99.90;;;;;;5011405;28;20520;-76
2023/03/19 11:42:10;;;;;;;1.93;1.80;;;13.20;99.90;;;;;;5004401;28;21018;-77
2023/03/19 11:44:49;;;;;;;2.53;2.20;;;13.10;99.90;;;;;;5004691;28;20549;-76
2023/03/19 11:47:27;;;;;;;2.20;2.00;;;13.00;99.90;;;;;;5010226;28;21980;-76
2023/03/19 11:50:07;;;;;;;3.37;2.40;;;12.80;99.90;;;;;;5009419;28;20574;-76
2023/03/19 11:52:41;;;;;;;5.73;2.60;;;12.60;99.90;;;;;;5007497;28;20549;-74
2023/03/19 11:55:20;;;;;;;2.70;2.50;;;12.50;99.90;;;;;;5007089;28;20532;-74
2023/03/19 11:58:02;;;;;;;2.63;2.43;;;12.40;99.90;;;;;;5001958;28;20455;-74
2023/03/19 12:00:33;;;;;;;2.90;2.70;;;12.40;99.90;;;;;;5003983;28;20833;-74
2023/03/19 12:03:50;;;;;;;3.93;2.60;;;12.40;99.90;;;;;;5006526;28;20478;-74
2023/03/19 12:06:28;;;;;;;3.53;2.60;;;12.40;99.90;;;;;;5004053;28;20470;-75
2023/03/19 12:09:02;;;;;;;8.40;3.07;;;12.40;99.90;;;;;;5010179;28;20450;-75
2023/03/19 12:11:36;;;;;;;3.17;2.93;;;12.40;99.90;;;;;;5002964;28;21001;-73
2023/03/19 12:14:15;;;;;;;4.60;2.50;;;12.50;99.90;;;;;;5009827;28;20473;-73
2023/03/19 12:16:57;;;;;;;5.47;2.37;;;12.60;99.90;;;;;;5004080;28;20972;-73
2023/03/19 12:19:38;;;;;;;3.20;2.90;;;12.70;99.90;;;;;;5010331;28;20443;-73
2023/03/19 12:22:16;;;;;;;3.83;3.43;;;12.70;99.90;;;;;;5006780;28;20542;-73
2023/03/19 12:25:01;;;;;;;7.17;3.20;;;12.80;99.90;;;;;;5010080;28;20532;-73
2023/03/19 12:27:33;;;;;;;2.60;2.40;;;12.90;99.90;;;;;;5003034;28;20447;-77
2023/03/19 12:30:08;;;;;;;3.20;2.90;;;13.00;99.90;;;;;;5010416;28;20490;-77
2023/03/19 12:32:47;;;;;;;5.67;2.90;;;13.00;99.90;;;;;;5012359;28;20517;-77
2023/03/19 12:35:18;;;;;;;3.87;2.40;;;13.00;99.90;;;;;;5013265;28;20479;-76
2023/03/19 12:37:55;;;;;;;5.43;2.40;;;13.00;99.90;;;;;;5013306;28;20461;-76
2023/03/19 12:40:29;;;;;;;5.40;3.33;;;13.00;99.90;;;;;;5012808;28;20439;-77
2023/03/19 12:42:58;;;;;;;4.47;2.77;;;13.10;99.90;;;;;;5013179;28;20443;-76
2023/03/19 12:45:30;;;;;;;7.10;2.93;;;13.10;99.90;;;;;;5013025;28;20475;-77